Alma, Alabama
Current Conditions -  °F | °C
As of 12:20 PM on Sunday 23 Nov 2014 (Local Time) from KGZH Reporting Station
Light Rain Light Rain  
Wind Chill: 69°   Ceiling: 7000
Heat Index: 69°   Visibility: 9mi
Dew Point: 63°   Wind: 13mph
Humidity: 81%   Direction: 240°WSW
Pressure: 29.68"   Gusts: 22mph
Location:  31.46°N, 87.75°W
Report Text: KGZH 231820Z AUTO 24011G19KT 9SM -RA SCT050 BKN070 OVC120 21/17 A2968 RMK AO2 PRESFR P0006 T02060172
Loading
Personal Weather Stations






























Interactive Weather Map New forecast layout! Learn more

10-Day Weather Forecast

Advertisements
Track Severe Weather on mobile